sensor_id;sensor_type;location;lat;lon;timestamp;P1;durP1;ratioP1;P2;durP2;ratioP2
77828;SDS011;67019;51.034;3.728;2023-08-01T00:00:52;12.43;;;4.10;;
77828;SDS011;67019;51.034;3.728;2023-08-01T00:03:20;12.88;;;5.30;;
77828;SDS011;67019;51.034;3.728;2023-08-01T00:05:49;10.70;;;5.22;;
77828;SDS011;67019;51.034;3.728;2023-08-01T00:08:17;14.00;;;5.83;;
77828;SDS011;67019;51.034;3.728;2023-08-01T00:10:44;14.38;;;5.50;;
77828;SDS011;67019;51.034;3.728;2023-08-01T00:13:12;10.88;;;5.15;;
77828;SDS011;67019;51.034;3.728;2023-08-01T00:15:40;12.28;;;5.20;;
77828;SDS011;67019;51.034;3.728;2023-08-01T00:18:07;19.05;;;5.67;;
77828;SDS011;67019;51.034;3.728;2023-08-01T00:20:35;11.93;;;5.50;;
77828;SDS011;67019;51.034;3.728;2023-08-01T00:23:02;9.18;;;4.60;;
77828;SDS011;67019;51.034;3.728;2023-08-01T00:25:30;11.28;;;5.85;;
77828;SDS011;67019;51.034;3.728;2023-08-01T00:27:57;13.75;;;5.12;;
77828;SDS011;67019;51.034;3.728;2023-08-01T00:30:25;16.93;;;6.00;;
77828;SDS011;67019;51.034;3.728;2023-08-01T00:32:53;9.90;;;5.12;;
77828;SDS011;67019;51.034;3.728;2023-08-01T00:35:20;8.38;;;5.20;;
77828;SDS011;67019;51.034;3.728;2023-08-01T00:37:48;11.40;;;5.00;;
77828;SDS011;67019;51.034;3.728;2023-08-01T00:40:16;14.73;;;5.45;;
77828;SDS011;67019;51.034;3.728;2023-08-01T00:42:43;14.80;;;5.85;;
77828;SDS011;67019;51.034;3.728;2023-08-01T00:45:11;13.58;;;5.50;;
77828;SDS011;67019;51.034;3.728;2023-08-01T00:47:38;17.98;;;5.55;;
77828;SDS011;67019;51.034;3.728;2023-08-01T00:50:06;13.20;;;6.35;;
77828;SDS011;67019;51.034;3.728;2023-08-01T00:52:34;9.68;;;5.70;;
77828;SDS011;67019;51.034;3.728;2023-08-01T00:55:02;18.65;;;6.30;;
77828;SDS011;67019;51.034;3.728;2023-08-01T00:57:30;17.73;;;6.97;;
77828;SDS011;67019;51.034;3.728;2023-08-01T00:59:58;14.25;;;7.50;;
77828;SDS011;67019;51.034;3.728;2023-08-01T01:02:26;16.95;;;7.10;;
77828;SDS011;67019;51.034;3.728;2023-08-01T01:04:53;19.75;;;8.70;;
77828;SDS011;67019;51.034;3.728;2023-08-01T01:07:21;19.92;;;8.85;;
77828;SDS011;67019;51.034;3.728;2023-08-01T01:09:50;22.95;;;9.20;;
77828;SDS011;67019;51.034;3.728;2023-08-01T01:12:18;17.75;;;9.93;;
77828;SDS011;67019;51.034;3.728;2023-08-01T01:14:45;15.32;;;8.93;;
77828;SDS011;67019;51.034;3.728;2023-08-01T01:17:13;14.98;;;8.98;;
77828;SDS011;67019;51.034;3.728;2023-08-01T01:19:41;27.50;;;10.10;;
77828;SDS011;67019;51.034;3.728;2023-08-01T01:22:09;26.60;;;9.43;;
77828;SDS011;67019;51.034;3.728;2023-08-01T01:24:37;18.75;;;9.00;;
77828;SDS011;67019;51.034;3.728;2023-08-01T01:27:07;19.40;;;8.55;;
77828;SDS011;67019;51.034;3.728;2023-08-01T01:29:36;21.05;;;11.22;;
77828;SDS011;67019;51.034;3.728;2023-08-01T01:32:05;22.75;;;12.07;;
77828;SDS011;67019;51.034;3.728;2023-08-01T01:34:34;25.10;;;10.50;;
77828;SDS011;67019;51.034;3.728;2023-08-01T01:37:01;27.58;;;11.28;;
77828;SDS011;67019;51.034;3.728;2023-08-01T01:39:29;23.42;;;10.43;;
77828;SDS011;67019;51.034;3.728;2023-08-01T01:41:58;28.23;;;12.03;;
77828;SDS011;67019;51.034;3.728;2023-08-01T01:44:25;25.85;;;11.30;;
77828;SDS011;67019;51.034;3.728;2023-08-01T01:46:53;29.30;;;11.12;;
77828;SDS011;67019;51.034;3.728;2023-08-01T01:49:21;22.60;;;11.65;;
77828;SDS011;67019;51.034;3.728;2023-08-01T01:51:50;27.50;;;11.30;;
77828;SDS011;67019;51.034;3.728;2023-08-01T01:54:18;27.93;;;11.57;;
77828;SDS011;67019;51.034;3.728;2023-08-01T01:56:46;24.77;;;11.22;;
77828;SDS011;67019;51.034;3.728;2023-08-01T01:59:13;22.82;;;10.35;;
77828;SDS011;67019;51.034;3.728;2023-08-01T02:01:41;28.10;;;11.40;;
77828;SDS011;67019;51.034;3.728;2023-08-01T02:04:09;20.70;;;10.13;;
77828;SDS011;67019;51.034;3.728;2023-08-01T02:06:36;23.00;;;10.40;;
77828;SDS011;67019;51.034;3.728;2023-08-01T02:09:04;25.05;;;11.78;;
77828;SDS011;67019;51.034;3.728;2023-08-01T02:11:31;28.50;;;13.20;;
77828;SDS011;67019;51.034;3.728;2023-08-01T02:14:00;30.12;;;12.58;;
77828;SDS011;67019;51.034;3.728;2023-08-01T02:16:29;28.40;;;12.60;;
77828;SDS011;67019;51.034;3.728;2023-08-01T02:18:56;23.45;;;11.12;;
77828;SDS011;67019;51.034;3.728;2023-08-01T02:21:24;23.70;;;12.37;;
77828;SDS011;67019;51.034;3.728;2023-08-01T02:23:51;28.62;;;13.78;;
77828;SDS011;67019;51.034;3.728;2023-08-01T02:26:19;25.85;;;12.18;;
77828;SDS011;67019;51.034;3.728;2023-08-01T02:28:48;31.60;;;11.68;;
77828;SDS011;67019;51.034;3.728;2023-08-01T02:31:17;24.50;;;10.32;;
77828;SDS011;67019;51.034;3.728;2023-08-01T02:33:46;24.50;;;10.18;;
77828;SDS011;67019;51.034;3.728;2023-08-01T02:36:15;25.32;;;10.43;;
77828;SDS011;67019;51.034;3.728;2023-08-01T02:38:42;26.90;;;9.73;;
77828;SDS011;67019;51.034;3.728;2023-08-01T02:41:11;22.13;;;10.03;;
77828;SDS011;67019;51.034;3.728;2023-08-01T02:43:39;30.15;;;11.40;;
77828;SDS011;67019;51.034;3.728;2023-08-01T02:46:07;22.35;;;8.23;;
77828;SDS011;67019;51.034;3.728;2023-08-01T02:48:34;19.90;;;9.05;;
77828;SDS011;67019;51.034;3.728;2023-08-01T02:51:02;27.95;;;12.23;;
77828;SDS011;67019;51.034;3.728;2023-08-01T02:53:30;30.80;;;9.73;;
77828;SDS011;67019;51.034;3.728;2023-08-01T02:55:58;23.52;;;9.48;;
77828;SDS011;67019;51.034;3.728;2023-08-01T02:58:26;19.40;;;9.63;;
77828;SDS011;67019;51.034;3.728;2023-08-01T03:00:54;27.30;;;11.63;;
77828;SDS011;67019;51.034;3.728;2023-08-01T03:03:23;24.82;;;9.63;;
77828;SDS011;67019;51.034;3.728;2023-08-01T03:05:51;19.55;;;10.10;;
77828;SDS011;67019;51.034;3.728;2023-08-01T03:08:19;18.92;;;9.43;;
77828;SDS011;67019;51.034;3.728;2023-08-01T03:10:47;22.05;;;9.90;;
77828;SDS011;67019;51.034;3.728;2023-08-01T03:13:14;19.02;;;8.33;;
77828;SDS011;67019;51.034;3.728;2023-08-01T03:15:42;20.15;;;8.90;;
77828;SDS011;67019;51.034;3.728;2023-08-01T03:18:10;14.65;;;7.50;;
77828;SDS011;67019;51.034;3.728;2023-08-01T03:20:37;23.30;;;10.40;;
77828;SDS011;67019;51.034;3.728;2023-08-01T03:23:05;24.43;;;8.93;;
77828;SDS011;67019;51.034;3.728;2023-08-01T03:25:32;16.45;;;10.38;;
77828;SDS011;67019;51.034;3.728;2023-08-01T03:28:00;26.50;;;9.15;;
77828;SDS011;67019;51.034;3.728;2023-08-01T03:30:28;21.12;;;10.32;;
77828;SDS011;67019;51.034;3.728;2023-08-01T03:32:57;24.92;;;8.33;;
77828;SDS011;67019;51.034;3.728;2023-08-01T03:35:26;25.95;;;8.93;;
77828;SDS011;67019;51.034;3.728;2023-08-01T03:37:53;20.92;;;9.70;;
77828;SDS011;67019;51.034;3.728;2023-08-01T03:40:21;21.97;;;9.18;;
77828;SDS011;67019;51.034;3.728;2023-08-01T03:42:48;22.95;;;8.75;;
77828;SDS011;67019;51.034;3.728;2023-08-01T03:45:16;21.23;;;8.73;;
77828;SDS011;67019;51.034;3.728;2023-08-01T03:47:44;15.58;;;8.70;;
77828;SDS011;67019;51.034;3.728;2023-08-01T03:50:11;24.72;;;8.83;;
77828;SDS011;67019;51.034;3.728;2023-08-01T03:52:39;13.98;;;8.43;;
77828;SDS011;67019;51.034;3.728;2023-08-01T03:55:07;14.73;;;8.35;;
77828;SDS011;67019;51.034;3.728;2023-08-01T03:57:35;23.38;;;8.83;;
77828;SDS011;67019;51.034;3.728;2023-08-01T04:00:05;19.95;;;9.15;;
77828;SDS011;67019;51.034;3.728;2023-08-01T04:02:35;24.32;;;11.33;;
77828;SDS011;67019;51.034;3.728;2023-08-01T04:05:03;21.93;;;9.48;;
77828;SDS011;67019;51.034;3.728;2023-08-01T04:07:30;18.87;;;9.60;;
77828;SDS011;67019;51.034;3.728;2023-08-01T04:09:58;25.97;;;8.20;;
77828;SDS011;67019;51.034;3.728;2023-08-01T04:12:26;15.60;;;8.23;;
77828;SDS011;67019;51.034;3.728;2023-08-01T04:14:55;19.80;;;8.20;;
77828;SDS011;67019;51.034;3.728;2023-08-01T04:17:22;22.60;;;8.30;;
77828;SDS011;67019;51.034;3.728;2023-08-01T04:19:50;25.32;;;9.00;;
77828;SDS011;67019;51.034;3.728;2023-08-01T04:22:18;18.82;;;8.03;;
77828;SDS011;67019;51.034;3.728;2023-08-01T04:24:45;18.07;;;7.90;;
77828;SDS011;67019;51.034;3.728;2023-08-01T04:27:13;20.52;;;7.85;;
77828;SDS011;67019;51.034;3.728;2023-08-01T04:29:41;20.23;;;8.50;;
77828;SDS011;67019;51.034;3.728;2023-08-01T04:32:08;20.40;;;8.38;;
77828;SDS011;67019;51.034;3.728;2023-08-01T04:34:37;21.45;;;7.55;;
77828;SDS011;67019;51.034;3.728;2023-08-01T04:37:05;21.68;;;7.30;;
77828;SDS011;67019;51.034;3.728;2023-08-01T04:39:33;23.00;;;8.23;;
77828;SDS011;67019;51.034;3.728;2023-08-01T04:42:01;19.12;;;8.28;;
77828;SDS011;67019;51.034;3.728;2023-08-01T04:44:28;14.50;;;7.55;;
77828;SDS011;67019;51.034;3.728;2023-08-01T04:46:56;18.23;;;8.78;;
77828;SDS011;67019;51.034;3.728;2023-08-01T04:49:24;20.37;;;7.30;;
77828;SDS011;67019;51.034;3.728;2023-08-01T04:51:51;21.17;;;8.20;;
77828;SDS011;67019;51.034;3.728;2023-08-01T04:54:19;22.35;;;7.25;;
77828;SDS011;67019;51.034;3.728;2023-08-01T04:56:47;15.95;;;7.37;;
77828;SDS011;67019;51.034;3.728;2023-08-01T04:59:16;17.48;;;6.50;;
77828;SDS011;67019;51.034;3.728;2023-08-01T05:01:43;14.50;;;6.37;;
77828;SDS011;67019;51.034;3.728;2023-08-01T05:04:11;19.05;;;7.00;;
77828;SDS011;67019;51.034;3.728;2023-08-01T05:06:39;16.80;;;6.90;;
77828;SDS011;67019;51.034;3.728;2023-08-01T05:09:06;12.30;;;6.75;;
77828;SDS011;67019;51.034;3.728;2023-08-01T05:11:34;19.90;;;7.92;;
77828;SDS011;67019;51.034;3.728;2023-08-01T05:14:02;23.20;;;8.25;;
77828;SDS011;67019;51.034;3.728;2023-08-01T05:16:29;17.00;;;6.55;;
77828;SDS011;67019;51.034;3.728;2023-08-01T05:18:57;21.25;;;7.37;;
77828;SDS011;67019;51.034;3.728;2023-08-01T05:21:26;18.87;;;7.00;;
77828;SDS011;67019;51.034;3.728;2023-08-01T05:23:53;22.75;;;6.95;;
77828;SDS011;67019;51.034;3.728;2023-08-01T05:26:21;19.52;;;7.10;;
77828;SDS011;67019;51.034;3.728;2023-08-01T05:28:48;26.62;;;7.22;;
77828;SDS011;67019;51.034;3.728;2023-08-01T05:31:16;17.87;;;7.45;;
77828;SDS011;67019;51.034;3.728;2023-08-01T05:33:44;16.52;;;7.95;;
77828;SDS011;67019;51.034;3.728;2023-08-01T05:36:12;17.40;;;8.45;;
77828;SDS011;67019;51.034;3.728;2023-08-01T05:38:39;18.75;;;6.75;;
77828;SDS011;67019;51.034;3.728;2023-08-01T05:41:07;16.77;;;7.45;;
77828;SDS011;67019;51.034;3.728;2023-08-01T05:43:36;27.40;;;7.97;;
77828;SDS011;67019;51.034;3.728;2023-08-01T05:46:03;19.52;;;8.70;;
77828;SDS011;67019;51.034;3.728;2023-08-01T05:48:31;18.48;;;7.45;;
77828;SDS011;67019;51.034;3.728;2023-08-01T05:50:59;20.65;;;7.65;;
77828;SDS011;67019;51.034;3.728;2023-08-01T05:53:26;16.90;;;7.95;;
77828;SDS011;67019;51.034;3.728;2023-08-01T05:55:54;19.50;;;7.80;;
77828;SDS011;67019;51.034;3.728;2023-08-01T05:58:22;22.73;;;9.50;;
77828;SDS011;67019;51.034;3.728;2023-08-01T06:00:51;20.57;;;8.18;;
77828;SDS011;67019;51.034;3.728;2023-08-01T06:03:20;19.35;;;7.80;;
77828;SDS011;67019;51.034;3.728;2023-08-01T06:05:47;14.03;;;7.62;;
77828;SDS011;67019;51.034;3.728;2023-08-01T06:08:15;15.23;;;7.03;;
77828;SDS011;67019;51.034;3.728;2023-08-01T06:10:43;21.82;;;7.15;;
77828;SDS011;67019;51.034;3.728;2023-08-01T06:13:11;13.08;;;7.35;;
77828;SDS011;67019;51.034;3.728;2023-08-01T06:15:39;12.47;;;6.47;;
77828;SDS011;67019;51.034;3.728;2023-08-01T06:18:08;19.35;;;6.65;;
77828;SDS011;67019;51.034;3.728;2023-08-01T06:20:37;11.15;;;5.62;;
77828;SDS011;67019;51.034;3.728;2023-08-01T06:23:05;16.02;;;6.37;;
77828;SDS011;67019;51.034;3.728;2023-08-01T06:25:33;13.53;;;5.87;;
77828;SDS011;67019;51.034;3.728;2023-08-01T06:28:00;11.85;;;6.22;;
77828;SDS011;67019;51.034;3.728;2023-08-01T06:30:28;14.28;;;6.25;;
77828;SDS011;67019;51.034;3.728;2023-08-01T06:32:56;20.88;;;5.87;;
77828;SDS011;67019;51.034;3.728;2023-08-01T06:35:23;13.35;;;4.78;;
77828;SDS011;67019;51.034;3.728;2023-08-01T06:37:51;18.80;;;5.17;;
77828;SDS011;67019;51.034;3.728;2023-08-01T06:40:19;13.32;;;5.40;;
77828;SDS011;67019;51.034;3.728;2023-08-01T06:42:46;18.87;;;5.92;;
77828;SDS011;67019;51.034;3.728;2023-08-01T06:45:14;9.23;;;5.40;;
77828;SDS011;67019;51.034;3.728;2023-08-01T06:47:42;14.98;;;6.25;;
77828;SDS011;67019;51.034;3.728;2023-08-01T06:50:09;12.53;;;6.47;;
77828;SDS011;67019;51.034;3.728;2023-08-01T06:52:37;13.45;;;5.53;;
77828;SDS011;67019;51.034;3.728;2023-08-01T06:55:05;14.80;;;6.22;;
77828;SDS011;67019;51.034;3.728;2023-08-01T06:57:33;11.30;;;5.72;;
77828;SDS011;67019;51.034;3.728;2023-08-01T07:00:00;17.67;;;6.53;;
77828;SDS011;67019;51.034;3.728;2023-08-01T07:02:30;17.32;;;6.30;;
77828;SDS011;67019;51.034;3.728;2023-08-01T07:04:58;16.37;;;6.15;;
77828;SDS011;67019;51.034;3.728;2023-08-01T07:07:25;18.80;;;6.80;;
77828;SDS011;67019;51.034;3.728;2023-08-01T07:09:54;16.90;;;6.95;;
77828;SDS011;67019;51.034;3.728;2023-08-01T07:12:22;17.07;;;5.55;;
77828;SDS011;67019;51.034;3.728;2023-08-01T07:14:49;11.90;;;5.92;;
77828;SDS011;67019;51.034;3.728;2023-08-01T07:20:21;12.53;;;6.10;;
77828;SDS011;67019;51.034;3.728;2023-08-01T07:22:49;13.75;;;6.22;;
77828;SDS011;67019;51.034;3.728;2023-08-01T07:25:16;14.83;;;6.97;;
77828;SDS011;67019;51.034;3.728;2023-08-01T07:27:45;12.82;;;6.22;;
77828;SDS011;67019;51.034;3.728;2023-08-01T07:30:13;13.10;;;5.53;;
77828;SDS011;67019;51.034;3.728;2023-08-01T07:32:40;20.80;;;6.30;;
77828;SDS011;67019;51.034;3.728;2023-08-01T07:35:09;18.65;;;6.50;;
77828;SDS011;67019;51.034;3.728;2023-08-01T07:37:37;19.00;;;6.58;;
77828;SDS011;67019;51.034;3.728;2023-08-01T07:40:05;15.13;;;6.30;;
77828;SDS011;67019;51.034;3.728;2023-08-01T07:42:33;15.65;;;6.72;;
77828;SDS011;67019;51.034;3.728;2023-08-01T07:45:02;18.15;;;7.60;;
77828;SDS011;67019;51.034;3.728;2023-08-01T07:47:34;15.85;;;6.47;;
77828;SDS011;67019;51.034;3.728;2023-08-01T07:50:04;15.70;;;5.75;;
77828;SDS011;67019;51.034;3.728;2023-08-01T07:52:31;12.93;;;6.03;;
77828;SDS011;67019;51.034;3.728;2023-08-01T07:54:59;28.90;;;6.30;;
77828;SDS011;67019;51.034;3.728;2023-08-01T07:57:27;13.13;;;5.58;;
77828;SDS011;67019;51.034;3.728;2023-08-01T07:59:54;11.10;;;5.00;;
77828;SDS011;67019;51.034;3.728;2023-08-01T08:02:22;14.78;;;5.60;;
77828;SDS011;67019;51.034;3.728;2023-08-01T08:04:50;13.35;;;5.75;;
77828;SDS011;67019;51.034;3.728;2023-08-01T08:07:17;11.53;;;5.22;;
77828;SDS011;67019;51.034;3.728;2023-08-01T08:09:45;15.28;;;4.50;;
77828;SDS011;67019;51.034;3.728;2023-08-01T08:12:13;18.48;;;4.47;;
77828;SDS011;67019;51.034;3.728;2023-08-01T08:14:44;15.38;;;8.90;;
77828;SDS011;67019;51.034;3.728;2023-08-01T08:17:11;13.90;;;6.15;;
77828;SDS011;67019;51.034;3.728;2023-08-01T08:19:38;13.68;;;6.50;;
77828;SDS011;67019;51.034;3.728;2023-08-01T08:22:08;9.63;;;5.85;;
77828;SDS011;67019;51.034;3.728;2023-08-01T08:24:37;12.93;;;6.25;;
77828;SDS011;67019;51.034;3.728;2023-08-01T08:27:04;11.33;;;7.35;;
77828;SDS011;67019;51.034;3.728;2023-08-01T08:29:32;20.82;;;7.83;;
77828;SDS011;67019;51.034;3.728;2023-08-01T08:32:00;14.03;;;7.40;;
77828;SDS011;67019;51.034;3.728;2023-08-01T08:34:27;14.83;;;8.08;;
77828;SDS011;67019;51.034;3.728;2023-08-01T08:36:57;14.35;;;8.65;;
77828;SDS011;67019;51.034;3.728;2023-08-01T08:39:24;12.33;;;7.40;;
77828;SDS011;67019;51.034;3.728;2023-08-01T08:41:52;17.20;;;7.15;;
77828;SDS011;67019;51.034;3.728;2023-08-01T08:44:21;12.35;;;7.60;;
77828;SDS011;67019;51.034;3.728;2023-08-01T08:53:06;11.43;;;7.37;;
77828;SDS011;67019;51.034;3.728;2023-08-01T08:55:36;8.45;;;7.03;;
77828;SDS011;67019;51.034;3.728;2023-08-01T08:58:04;12.43;;;7.25;;
77828;SDS011;67019;51.034;3.728;2023-08-01T09:00:34;15.30;;;7.72;;
77828;SDS011;67019;51.034;3.728;2023-08-01T09:03:08;19.27;;;8.28;;
77828;SDS011;67019;51.034;3.728;2023-08-01T09:05:38;16.02;;;7.10;;
77828;SDS011;67019;51.034;3.728;2023-08-01T09:08:13;14.10;;;6.62;;
77828;SDS011;67019;51.034;3.728;2023-08-01T09:13:08;11.73;;;5.67;;
77828;SDS011;67019;51.034;3.728;2023-08-01T09:15:37;15.83;;;5.00;;
77828;SDS011;67019;51.034;3.728;2023-08-01T09:18:09;16.93;;;5.92;;
77828;SDS011;67019;51.034;3.728;2023-08-01T09:33:46;12.68;;;4.03;;
77828;SDS011;67019;51.034;3.728;2023-08-01T10:02:51;9.55;;;3.55;;
77828;SDS011;67019;51.034;3.728;2023-08-01T10:08:54;6.42;;;2.70;;
77828;SDS011;67019;51.034;3.728;2023-08-01T10:20:40;4.55;;;2.60;;
77828;SDS011;67019;51.034;3.728;2023-08-01T10:38:44;11.03;;;3.00;;
77828;SDS011;67019;51.034;3.728;2023-08-01T10:41:37;6.45;;;2.12;;
77828;SDS011;67019;51.034;3.728;2023-08-01T10:51:08;7.00;;;2.27;;
77828;SDS011;67019;51.034;3.728;2023-08-01T10:53:41;8.73;;;1.95;;
77828;SDS011;67019;51.034;3.728;2023-08-01T10:56:07;7.03;;;2.35;;
77828;SDS011;67019;51.034;3.728;2023-08-01T10:58:42;8.85;;;2.50;;
77828;SDS011;67019;51.034;3.728;2023-08-01T11:20:28;9.28;;;1.77;;
77828;SDS011;67019;51.034;3.728;2023-08-01T11:26:19;5.30;;;1.37;;
77828;SDS011;67019;51.034;3.728;2023-08-01T11:28:48;7.72;;;1.98;;
77828;SDS011;67019;51.034;3.728;2023-08-01T11:31:17;5.03;;;1.90;;
77828;SDS011;67019;51.034;3.728;2023-08-01T11:33:54;2.85;;;1.65;;
77828;SDS011;67019;51.034;3.728;2023-08-01T11:36:26;6.67;;;1.77;;
77828;SDS011;67019;51.034;3.728;2023-08-01T11:39:18;7.72;;;2.15;;
77828;SDS011;67019;51.034;3.728;2023-08-01T11:54:12;6.70;;;2.58;;
77828;SDS011;67019;51.034;3.728;2023-08-01T12:00:20;5.97;;;1.90;;
77828;SDS011;67019;51.034;3.728;2023-08-01T12:02:45;6.53;;;1.98;;
77828;SDS011;67019;51.034;3.728;2023-08-01T12:05:20;8.03;;;1.75;;
77828;SDS011;67019;51.034;3.728;2023-08-01T12:08:10;6.33;;;2.22;;
77828;SDS011;67019;51.034;3.728;2023-08-01T12:10:39;10.65;;;2.35;;
77828;SDS011;67019;51.034;3.728;2023-08-01T12:19:17;8.28;;;1.75;;
77828;SDS011;67019;51.034;3.728;2023-08-01T12:25:20;5.20;;;1.72;;
77828;SDS011;67019;51.034;3.728;2023-08-01T12:31:27;3.90;;;1.90;;
77828;SDS011;67019;51.034;3.728;2023-08-01T12:40:52;6.03;;;2.02;;
77828;SDS011;67019;51.034;3.728;2023-08-01T12:43:20;8.90;;;1.85;;
77828;SDS011;67019;51.034;3.728;2023-08-01T12:45:50;10.05;;;2.10;;
77828;SDS011;67019;51.034;3.728;2023-08-01T12:48:17;8.48;;;2.02;;
77828;SDS011;67019;51.034;3.728;2023-08-01T12:50:45;9.43;;;2.08;;
77828;SDS011;67019;51.034;3.728;2023-08-01T13:19:43;7.90;;;2.02;;
77828;SDS011;67019;51.034;3.728;2023-08-01T13:25:29;10.05;;;1.75;;
77828;SDS011;67019;51.034;3.728;2023-08-01T13:38:14;5.78;;;2.60;;
77828;SDS011;67019;51.034;3.728;2023-08-01T13:40:43;7.95;;;2.27;;
77828;SDS011;67019;51.034;3.728;2023-08-01T13:43:11;12.68;;;2.67;;
77828;SDS011;67019;51.034;3.728;2023-08-01T13:45:38;6.75;;;1.80;;
77828;SDS011;67019;51.034;3.728;2023-08-01T13:48:06;6.97;;;2.33;;
77828;SDS011;67019;51.034;3.728;2023-08-01T13:50:34;7.08;;;1.80;;
77828;SDS011;67019;51.034;3.728;2023-08-01T13:53:10;8.95;;;1.90;;
77828;SDS011;67019;51.034;3.728;2023-08-01T13:55:39;5.45;;;2.52;;
77828;SDS011;67019;51.034;3.728;2023-08-01T13:58:08;11.38;;;2.42;;
77828;SDS011;67019;51.034;3.728;2023-08-01T14:00:36;6.05;;;2.37;;
77828;SDS011;67019;51.034;3.728;2023-08-01T14:03:04;6.80;;;2.02;;
77828;SDS011;67019;51.034;3.728;2023-08-01T14:05:31;9.03;;;1.77;;
77828;SDS011;67019;51.034;3.728;2023-08-01T14:07:59;4.75;;;2.10;;
77828;SDS011;67019;51.034;3.728;2023-08-01T14:10:27;10.80;;;2.27;;
77828;SDS011;67019;51.034;3.728;2023-08-01T14:13:03;10.70;;;2.30;;
77828;SDS011;67019;51.034;3.728;2023-08-01T14:15:32;8.58;;;2.90;;
77828;SDS011;67019;51.034;3.728;2023-08-01T14:17:59;4.30;;;1.92;;
77828;SDS011;67019;51.034;3.728;2023-08-01T14:20:27;7.47;;;2.00;;
77828;SDS011;67019;51.034;3.728;2023-08-01T14:29:28;5.33;;;1.85;;
77828;SDS011;67019;51.034;3.728;2023-08-01T14:38:10;8.85;;;2.47;;
77828;SDS011;67019;51.034;3.728;2023-08-01T14:40:38;5.50;;;2.00;;
77828;SDS011;67019;51.034;3.728;2023-08-01T14:43:05;12.47;;;2.20;;
77828;SDS011;67019;51.034;3.728;2023-08-01T14:45:36;10.93;;;2.83;;
77828;SDS011;67019;51.034;3.728;2023-08-01T14:48:07;7.75;;;1.92;;
77828;SDS011;67019;51.034;3.728;2023-08-01T14:50:35;7.22;;;2.12;;
77828;SDS011;67019;51.034;3.728;2023-08-01T14:53:04;4.10;;;2.17;;
77828;SDS011;67019;51.034;3.728;2023-08-01T14:55:33;7.62;;;2.02;;
77828;SDS011;67019;51.034;3.728;2023-08-01T14:58:03;6.30;;;2.25;;
77828;SDS011;67019;51.034;3.728;2023-08-01T15:00:35;7.42;;;1.95;;
77828;SDS011;67019;51.034;3.728;2023-08-01T15:03:04;5.80;;;1.95;;
77828;SDS011;67019;51.034;3.728;2023-08-01T15:21:45;10.85;;;2.47;;
77828;SDS011;67019;51.034;3.728;2023-08-01T15:40:18;9.35;;;2.92;;
77828;SDS011;67019;51.034;3.728;2023-08-01T15:46:08;18.50;;;2.85;;
77828;SDS011;67019;51.034;3.728;2023-08-01T15:48:37;7.03;;;2.10;;
77828;SDS011;67019;51.034;3.728;2023-08-01T15:51:05;8.48;;;2.25;;
77828;SDS011;67019;51.034;3.728;2023-08-01T15:53:33;10.53;;;2.62;;
77828;SDS011;67019;51.034;3.728;2023-08-01T15:56:03;9.68;;;2.77;;
77828;SDS011;67019;51.034;3.728;2023-08-01T15:58:33;8.65;;;2.15;;
77828;SDS011;67019;51.034;3.728;2023-08-01T16:01:01;10.23;;;2.52;;
77828;SDS011;67019;51.034;3.728;2023-08-01T16:03:28;6.50;;;2.10;;
77828;SDS011;67019;51.034;3.728;2023-08-01T16:05:56;13.32;;;2.62;;
77828;SDS011;67019;51.034;3.728;2023-08-01T16:08:24;8.20;;;2.50;;
77828;SDS011;67019;51.034;3.728;2023-08-01T16:10:52;6.15;;;2.90;;
77828;SDS011;67019;51.034;3.728;2023-08-01T16:13:19;10.60;;;2.40;;
77828;SDS011;67019;51.034;3.728;2023-08-01T16:15:47;12.10;;;2.85;;
77828;SDS011;67019;51.034;3.728;2023-08-01T16:18:18;9.78;;;2.67;;
77828;SDS011;67019;51.034;3.728;2023-08-01T16:20:46;7.87;;;2.30;;
77828;SDS011;67019;51.034;3.728;2023-08-01T16:23:14;7.92;;;2.45;;
77828;SDS011;67019;51.034;3.728;2023-08-01T16:25:42;9.28;;;2.40;;
77828;SDS011;67019;51.034;3.728;2023-08-01T16:28:10;12.37;;;2.52;;
77828;SDS011;67019;51.034;3.728;2023-08-01T16:30:37;9.98;;;2.52;;
77828;SDS011;67019;51.034;3.728;2023-08-01T16:33:06;9.00;;;2.02;;
77828;SDS011;67019;51.034;3.728;2023-08-01T16:35:35;9.45;;;2.47;;
77828;SDS011;67019;51.034;3.728;2023-08-01T16:38:03;7.30;;;2.62;;
77828;SDS011;67019;51.034;3.728;2023-08-01T16:40:30;6.75;;;2.70;;
77828;SDS011;67019;51.034;3.728;2023-08-01T16:42:58;14.47;;;2.55;;
77828;SDS011;67019;51.034;3.728;2023-08-01T16:45:26;7.78;;;2.45;;
77828;SDS011;67019;51.034;3.728;2023-08-01T16:47:53;16.75;;;3.72;;
77828;SDS011;67019;51.034;3.728;2023-08-01T16:50:21;5.28;;;2.17;;
77828;SDS011;67019;51.034;3.728;2023-08-01T16:52:48;10.00;;;2.58;;
77828;SDS011;67019;51.034;3.728;2023-08-01T16:55:16;6.33;;;2.92;;
77828;SDS011;67019;51.034;3.728;2023-08-01T16:57:45;11.97;;;2.62;;
77828;SDS011;67019;51.034;3.728;2023-08-01T17:00:13;10.10;;;2.55;;
77828;SDS011;67019;51.034;3.728;2023-08-01T17:02:41;9.18;;;2.17;;
77828;SDS011;67019;51.034;3.728;2023-08-01T17:05:09;11.57;;;3.85;;
77828;SDS011;67019;51.034;3.728;2023-08-01T17:07:38;11.65;;;2.50;;
77828;SDS011;67019;51.034;3.728;2023-08-01T17:10:06;5.97;;;3.15;;
77828;SDS011;67019;51.034;3.728;2023-08-01T17:12:34;8.25;;;2.15;;
77828;SDS011;67019;51.034;3.728;2023-08-01T17:15:02;11.25;;;3.98;;
77828;SDS011;67019;51.034;3.728;2023-08-01T17:17:30;11.60;;;2.83;;
77828;SDS011;67019;51.034;3.728;2023-08-01T17:19:57;11.38;;;2.40;;
77828;SDS011;67019;51.034;3.728;2023-08-01T17:22:26;8.33;;;2.60;;
77828;SDS011;67019;51.034;3.728;2023-08-01T17:24:54;10.80;;;2.33;;
77828;SDS011;67019;51.034;3.728;2023-08-01T17:27:21;9.75;;;2.12;;
77828;SDS011;67019;51.034;3.728;2023-08-01T17:29:49;10.20;;;2.40;;
77828;SDS011;67019;51.034;3.728;2023-08-01T17:32:17;9.45;;;2.47;;
77828;SDS011;67019;51.034;3.728;2023-08-01T17:34:44;9.98;;;2.50;;
77828;SDS011;67019;51.034;3.728;2023-08-01T17:37:12;21.62;;;3.37;;
77828;SDS011;67019;51.034;3.728;2023-08-01T17:39:40;7.25;;;2.25;;
77828;SDS011;67019;51.034;3.728;2023-08-01T17:42:07;11.53;;;3.25;;
77828;SDS011;67019;51.034;3.728;2023-08-01T17:47:58;9.15;;;2.50;;
77828;SDS011;67019;51.034;3.728;2023-08-01T17:53:30;8.80;;;2.80;;
77828;SDS011;67019;51.034;3.728;2023-08-01T17:55:58;10.40;;;2.45;;
77828;SDS011;67019;51.034;3.728;2023-08-01T17:58:25;7.28;;;2.10;;
77828;SDS011;67019;51.034;3.728;2023-08-01T18:00:53;11.43;;;2.30;;
77828;SDS011;67019;51.034;3.728;2023-08-01T18:03:21;13.25;;;2.12;;
77828;SDS011;67019;51.034;3.728;2023-08-01T18:05:48;7.53;;;2.20;;
77828;SDS011;67019;51.034;3.728;2023-08-01T18:08:16;10.30;;;2.45;;
77828;SDS011;67019;51.034;3.728;2023-08-01T18:10:44;9.30;;;2.15;;
77828;SDS011;67019;51.034;3.728;2023-08-01T18:16:00;16.30;;;7.67;;
77828;SDS011;67019;51.034;3.728;2023-08-01T18:18:28;7.50;;;2.75;;
77828;SDS011;67019;51.034;3.728;2023-08-01T18:21:00;8.58;;;1.87;;
77828;SDS011;67019;51.034;3.728;2023-08-01T18:23:28;6.03;;;2.00;;
77828;SDS011;67019;51.034;3.728;2023-08-01T18:25:56;6.90;;;2.05;;
77828;SDS011;67019;51.034;3.728;2023-08-01T18:28:23;8.85;;;2.50;;
77828;SDS011;67019;51.034;3.728;2023-08-01T18:30:51;6.75;;;2.40;;
77828;SDS011;67019;51.034;3.728;2023-08-01T18:33:19;9.10;;;2.25;;
77828;SDS011;67019;51.034;3.728;2023-08-01T18:39:09;11.65;;;3.10;;
77828;SDS011;67019;51.034;3.728;2023-08-01T18:45:11;5.60;;;2.02;;
77828;SDS011;67019;51.034;3.728;2023-08-01T18:51:13;7.78;;;2.17;;
77828;SDS011;67019;51.034;3.728;2023-08-01T18:57:04;6.45;;;2.72;;
77828;SDS011;67019;51.034;3.728;2023-08-01T19:02:54;10.85;;;2.30;;